createdAt,value
2022-10-16T00:01:16.592Z,1.40
2022-10-16T00:03:44.569Z,1.38
2022-10-16T00:06:12.349Z,1.58
2022-10-16T00:08:39.419Z,1.20
2022-10-16T00:11:12.150Z,1.30
2022-10-16T00:13:40.493Z,1.40
2022-10-16T00:16:08.139Z,2.05
2022-10-16T00:18:35.417Z,1.30
2022-10-16T00:21:14.153Z,1.70
2022-10-16T00:23:41.673Z,1.45
2022-10-16T21:04:10.259Z,2.67
2022-10-16T21:06:39.411Z,2.97
2022-10-16T21:09:06.840Z,2.70
2022-10-16T21:11:35.954Z,3.20
2022-10-16T21:14:05.234Z,3.38
2022-10-16T21:16:32.361Z,2.95
2022-10-16T21:19:05.542Z,3.30
2022-10-16T21:21:35.809Z,3.03
2022-10-16T21:24:02.542Z,3.15
2022-10-16T21:26:30.246Z,3.20
2022-10-16T21:29:06.155Z,3.58
2022-10-16T21:31:34.022Z,3.40
2022-10-16T21:34:00.980Z,3.60
2022-10-16T21:36:30.091Z,3.38
2022-10-16T21:39:01.187Z,3.25
2022-10-16T21:41:29.507Z,3.38
2022-10-16T21:43:57.937Z,3.47
2022-10-16T21:46:27.222Z,4.35
2022-10-16T21:48:55.285Z,3.58
2022-10-16T21:51:30.250Z,4.18
2022-10-16T21:53:57.205Z,4.28
2022-10-16T21:56:24.243Z,4.10
2022-10-16T21:58:52.686Z,3.80
2022-10-16T22:01:23.683Z,4.07
2022-10-16T22:03:51.313Z,4.25
2022-10-16T22:08:51.406Z,4.18
2022-10-16T22:11:23.036Z,4.35
2022-10-16T22:13:56.668Z,4.55
2022-10-16T22:16:25.886Z,4.50
2022-10-16T22:18:54.310Z,4.93
2022-10-16T22:21:21.669Z,4.50
2022-10-16T22:23:48.282Z,4.40
2022-10-16T22:26:15.386Z,5.25
2022-10-16T22:28:42.325Z,4.38
2022-10-16T22:31:33.768Z,5.45
2022-10-16T22:34:03.008Z,4.38
2022-10-16T22:36:56.540Z,4.35
2022-10-16T22:39:24.058Z,5.10
2022-10-16T22:41:50.937Z,4.97
2022-10-16T22:44:17.667Z,4.82
2022-10-16T22:46:44.748Z,4.93
2022-10-16T22:49:12.700Z,5.35
2022-10-16T22:51:39.429Z,5.47
2022-10-16T22:54:06.216Z,5.13
2022-10-16T22:56:32.800Z,4.97
2022-10-16T22:58:59.356Z,4.93
2022-10-16T23:01:35.476Z,5.13
2022-10-16T23:04:02.151Z,5.00
2022-10-16T23:06:29.692Z,5.53
2022-10-16T23:08:59.465Z,4.72
2022-10-16T23:11:29.159Z,5.18
2022-10-16T23:13:56.383Z,5.00
2022-10-16T23:16:24.188Z,4.72
2022-10-16T23:18:51.158Z,6.15
2022-10-16T23:21:25.074Z,5.50
2022-10-16T23:23:53.619Z,4.82
2022-10-16T23:26:25.884Z,5.60
2022-10-16T23:29:00.692Z,5.30
2022-10-16T23:31:30.908Z,4.97
2022-10-16T23:33:58.922Z,4.68
2022-10-16T23:36:26.039Z,5.25
2022-10-16T23:38:53.559Z,5.47
2022-10-16T23:41:20.892Z,4.70
2022-10-16T23:43:48.038Z,5.97
2022-10-16T23:46:15.762Z,5.53
2022-10-16T23:48:42.562Z,6.35
2022-10-16T23:51:09.909Z,5.65
2022-10-16T23:53:37.033Z,5.97
2022-10-16T23:56:03.774Z,5.20
2022-10-16T23:58:30.575Z,5.18
